Elberta, UT

8:42 AM MST on February 08, 2016 (GMT -0700)
West Desert Airpark | | Change Station
CLOSE
Current Station
Personal Weather Station
Location: Fairfield, UT
Elevation: 4888 ft
Nearby Weather Stations

Elev 4888 ft 40.24 °N, 112.09 °W | Updated 3 seconds ago

Fog
Fog
5.5 °F
Feels Like 6 °F
N
0.0
Wind Variable Wind from WNW
Gusts 0.0 mph

Today
High -- | Low -- °F
--% Chance of Precip.
Yesterday
High -- | Low -- °F
Precip. -- in
Pressure 30.69 in
Visibility 2.5 miles
Clouds Clear
Windchill 6 °F
Dew Point 3 °F
Humidity 88%
Rainfall 0.00 in
Snow Depth Not available.
7:30 AM 5:54 PM
New Moon, 0% visible
METAR KPVU 081457Z 00000KT 2 1/2SM BR SKC M12/M14 A3069
Pressure 30.69 in
Visibility 2.5 miles
Clouds Clear
Windchill 6 °F
Dew Point 3 °F
Humidity 88%
Rainfall 0.00 in
Snow Depth Not available.
7:30 AM 5:54 PM
New Moon, 0% visible
METAR KPVU 081457Z 00000KT 2 1/2SM BR SKC M12/M14 A3069

10-Day Weather Forecast

Almanac

Astronomy

Feb. 08, 2016 Rise Set
Actual Time
Civil Twilight
Nautical Twilight
Astronomical Twilight
Moon
Length of Visible Light
Length of Day
Tomorrow will be .
, % of the Moon is Illuminated

Today's Extremes

State Highs State Lows

Community

WunderPhotos

Upload Photos

1,891,440 photos uploaded!

WunderBlog® & News

Nearby

Air Quality

  Air Quality AQ Index Pollutant
Not available.

Snow Depth

Station Depth Elevation

Earthquake Activity

City Distance Mag. Time & Date
Minimum magnitude displayed is 2.5.

Coastal Water Temperatures

Place Temperature

Stations

Nearby Weather Stations

Station Location Temp. Windchill Dew Point Humidity Wind Precip. Elev Updated Type
                   

Watches & Warnings

There are currently no watches in effect.